Time,TemperatureF,DewpointF,PressureIn,WindDirection,WindDirectionDegrees,WindSpeedMPH,WindSpeedGustMPH,Humidity,HourlyPrecipIn,Conditions,Clouds,dailyrainin,SolarRadiationWatts/m^2,SoftwareType,DateUTC
2013-01-28 02:00:00,38.0,38.0,29.82,WSW,246,2.0,-999.0,100,-99.99,,,-99.99,0.000000,,2013-01-28 08:00:00,
2013-01-28 02:52:00,38.0,38.0,29.82,WSW,246,2.0,-999.0,100,-99.99,,,-99.99,0.000000,,2013-01-28 08:52:00,
2013-01-28 04:00:00,36.0,36.0,29.81,South,181,1.0,-999.0,100,-99.99,,,-99.99,0.000000,,2013-01-28 10:00:00,
2013-01-28 04:52:00,36.0,36.0,29.81,South,181,1.0,-999.0,100,-99.99,,,-99.99,0.000000,,2013-01-28 10:52:00,
2013-01-28 05:00:00,35.0,35.0,29.82,SE,140,2.0,-999.0,100,-99.99,,,-99.99,0.000000,,2013-01-28 11:00:00,
2013-01-28 05:52:00,35.0,35.0,29.82,SE,140,2.0,-999.0,100,-99.99,,,-99.99,0.000000,,2013-01-28 11:52:00,
2013-01-28 06:00:00,34.0,34.0,29.81,SE,129,4.0,-999.0,100,-99.99,,,-99.99,0.000000,,2013-01-28 12:00:00,
2013-01-28 06:52:00,34.0,34.0,29.81,SE,129,4.0,-999.0,100,-99.99,,,-99.99,0.000000,,2013-01-28 12:52:00,
2013-01-28 07:00:00,34.0,34.0,29.83,SE,135,5.0,-999.0,100,-99.99,,,-99.99,0.000000,,2013-01-28 13:00:00,
2013-01-28 07:53:00,34.0,34.0,29.83,SE,135,5.0,-999.0,100,-99.99,,,-99.99,0.000000,,2013-01-28 13:53:00,
2013-01-28 09:00:00,33.0,33.0,29.82,ESE,122,4.0,-999.0,100,-99.99,,,-99.99,38.480000,,2013-01-28 15:00:00,
2013-01-28 09:53:00,33.0,33.0,29.82,ESE,122,4.0,-999.0,100,-99.99,,,-99.99,38.480000,,2013-01-28 15:53:00,
2013-01-28 11:00:00,37.0,37.0,29.81,ESE,118,4.0,-999.0,100,-99.99,,,-99.99,106.500000,,2013-01-28 17:00:00,
2013-01-28 11:53:00,37.0,37.0,29.81,ESE,118,4.0,-999.0,100,-99.99,,,-99.99,106.500000,,2013-01-28 17:53:00,
2013-01-28 12:00:00,39.0,39.0,29.76,ESE,119,5.0,-999.0,100,-99.99,,,-99.99,102.699997,,2013-01-28 18:00:00,
2013-01-28 12:52:00,39.0,39.0,29.76,ESE,119,5.0,-999.0,100,-99.99,,,-99.99,102.699997,,2013-01-28 18:52:00,
2013-01-28 13:00:00,40.0,40.0,29.72,ESE,119,5.0,-999.0,100,-99.99,,,-99.99,92.900002,,2013-01-28 19:00:00,
2013-01-28 13:52:00,40.0,40.0,29.72,ESE,119,5.0,-999.0,100,-99.99,,,-99.99,92.900002,,2013-01-28 19:52:00,
2013-01-28 15:00:00,43.0,43.0,29.67,SE,131,5.0,-999.0,100,-99.99,,,-99.99,96.900002,,2013-01-28 21:00:00,
2013-01-28 15:53:00,43.0,43.0,29.67,SE,131,5.0,-999.0,100,-99.99,,,-99.99,96.900002,,2013-01-28 21:53:00,
2013-01-28 16:00:00,45.0,45.0,29.64,SE,135,5.0,-999.0,100,-99.99,,,-99.99,71.190002,,2013-01-28 22:00:00,
2013-01-28 16:52:00,45.0,45.0,29.64,SE,135,5.0,-999.0,100,-99.99,,,-99.99,71.190002,,2013-01-28 22:52:00,
2013-01-28 17:00:00,45.0,45.0,29.62,SE,131,3.0,-999.0,100,-99.99,,,-99.99,36.090000,,2013-01-28 23:00:00,
2013-01-28 17:53:00,45.0,45.0,29.62,SE,131,3.0,-999.0,100,-99.99,,,-99.99,36.090000,,2013-01-28 23:53:00,
2013-01-28 18:00:00,46.0,46.0,29.61,ESE,120,3.0,-999.0,100,-99.99,,,-99.99,6.070000,,2013-01-29 00:00:00,
2013-01-28 18:52:00,46.0,46.0,29.61,ESE,120,3.0,-999.0,100,-99.99,,,-99.99,6.070000,,2013-01-29 00:52:00,
2013-01-28 19:00:00,43.0,43.0,29.61,NNE,16,3.0,-999.0,100,-99.99,,,-99.99,0.000000,,2013-01-29 01:00:00,
2013-01-28 19:53:00,43.0,43.0,29.61,NNE,16,3.0,-999.0,100,-99.99,,,-99.99,0.000000,,2013-01-29 01:53:00,
2013-01-28 20:00:00,41.0,41.0,29.60,North,358,4.0,-999.0,100,-99.99,,,-99.99,0.000000,,2013-01-29 02:00:00,
2013-01-28 20:53:00,41.0,41.0,29.60,North,358,4.0,-999.0,100,-99.99,,,-99.99,0.000000,,2013-01-29 02:53:00,
2013-01-28 21:00:00,40.0,40.0,29.58,North,352,1.0,-999.0,100,-99.99,,,-99.99,0.000000,,2013-01-29 03:00:00,
2013-01-28 21:53:00,40.0,40.0,29.58,North,352,1.0,-999.0,100,-99.99,,,-99.99,0.000000,,2013-01-29 03:53:00,
2013-01-28 22:00:00,39.0,39.0,29.58,NNW,337,3.0,-999.0,100,-99.99,,,-99.99,0.000000,,2013-01-29 04:00:00,
2013-01-28 22:52:00,39.0,39.0,29.58,NNW,337,3.0,-999.0,100,-99.99,,,-99.99,0.000000,,2013-01-29 04:52:00,
2013-01-28 23:00:00,39.0,39.0,29.56,NNW,342,4.0,-999.0,100,-99.99,,,-99.99,0.000000,,2013-01-29 05:00:00,
2013-01-28 23:52:00,39.0,39.0,29.56,NNW,342,4.0,-999.0,100,-99.99,,,-99.99,0.000000,,2013-01-29 05:52:00,